sensor_id;sensor_type;location;lat;lon;timestamp;P1;durP1;ratioP1;P2;durP2;ratioP2
75655;SDS011;64252;51.094;13.714;2022-11-23T00:01:17;17.08;;;7.15;;
75655;SDS011;64252;51.094;13.714;2022-11-23T00:03:44;28.27;;;11.80;;
75655;SDS011;64252;51.094;13.714;2022-11-23T00:06:11;25.63;;;9.60;;
75655;SDS011;64252;51.094;13.714;2022-11-23T00:08:38;23.83;;;9.57;;
75655;SDS011;64252;51.094;13.714;2022-11-23T00:11:03;22.52;;;9.98;;
75655;SDS011;64252;51.094;13.714;2022-11-23T00:13:29;27.00;;;10.68;;
75655;SDS011;64252;51.094;13.714;2022-11-23T00:15:55;29.92;;;11.93;;
75655;SDS011;64252;51.094;13.714;2022-11-23T00:18:20;21.63;;;8.45;;
75655;SDS011;64252;51.094;13.714;2022-11-23T00:20:46;21.08;;;8.77;;
75655;SDS011;64252;51.094;13.714;2022-11-23T00:23:11;23.13;;;9.25;;
75655;SDS011;64252;51.094;13.714;2022-11-23T00:25:37;21.00;;;8.93;;
75655;SDS011;64252;51.094;13.714;2022-11-23T00:28:03;36.05;;;14.25;;
75655;SDS011;64252;51.094;13.714;2022-11-23T00:30:28;24.60;;;9.52;;
75655;SDS011;64252;51.094;13.714;2022-11-23T00:32:55;24.92;;;10.70;;
75655;SDS011;64252;51.094;13.714;2022-11-23T00:35:21;19.70;;;8.10;;
75655;SDS011;64252;51.094;13.714;2022-11-23T00:37:47;22.85;;;9.75;;
75655;SDS011;64252;51.094;13.714;2022-11-23T00:40:13;25.13;;;10.05;;
75655;SDS011;64252;51.094;13.714;2022-11-23T00:42:39;21.02;;;8.82;;
75655;SDS011;64252;51.094;13.714;2022-11-23T00:45:04;26.15;;;10.75;;
75655;SDS011;64252;51.094;13.714;2022-11-23T00:47:30;17.20;;;7.78;;
75655;SDS011;64252;51.094;13.714;2022-11-23T00:49:56;24.80;;;8.93;;
75655;SDS011;64252;51.094;13.714;2022-11-23T00:52:22;21.23;;;8.45;;
75655;SDS011;64252;51.094;13.714;2022-11-23T00:54:47;18.73;;;7.63;;
75655;SDS011;64252;51.094;13.714;2022-11-23T00:57:13;20.63;;;8.63;;
75655;SDS011;64252;51.094;13.714;2022-11-23T00:59:38;17.73;;;7.22;;
75655;SDS011;64252;51.094;13.714;2022-11-23T01:02:04;21.40;;;8.45;;
75655;SDS011;64252;51.094;13.714;2022-11-23T01:04:30;24.40;;;10.25;;
75655;SDS011;64252;51.094;13.714;2022-11-23T01:06:58;19.95;;;8.93;;
75655;SDS011;64252;51.094;13.714;2022-11-23T01:09:23;28.23;;;11.18;;
75655;SDS011;64252;51.094;13.714;2022-11-23T01:11:53;23.40;;;9.43;;
75655;SDS011;64252;51.094;13.714;2022-11-23T01:14:22;22.23;;;8.85;;
75655;SDS011;64252;51.094;13.714;2022-11-23T01:16:48;22.15;;;9.70;;
75655;SDS011;64252;51.094;13.714;2022-11-23T01:19:15;23.67;;;10.10;;
75655;SDS011;64252;51.094;13.714;2022-11-23T01:21:45;25.13;;;9.45;;
75655;SDS011;64252;51.094;13.714;2022-11-23T01:24:12;24.90;;;9.57;;
75655;SDS011;64252;51.094;13.714;2022-11-23T01:26:40;25.13;;;10.27;;
75655;SDS011;64252;51.094;13.714;2022-11-23T01:29:06;24.27;;;8.70;;
75655;SDS011;64252;51.094;13.714;2022-11-23T01:31:32;22.55;;;8.85;;
75655;SDS011;64252;51.094;13.714;2022-11-23T01:33:59;22.65;;;9.43;;
75655;SDS011;64252;51.094;13.714;2022-11-23T01:36:27;18.90;;;7.68;;
75655;SDS011;64252;51.094;13.714;2022-11-23T01:38:56;23.48;;;8.35;;
75655;SDS011;64252;51.094;13.714;2022-11-23T01:41:27;17.67;;;7.88;;
75655;SDS011;64252;51.094;13.714;2022-11-23T01:43:55;24.00;;;9.50;;
75655;SDS011;64252;51.094;13.714;2022-11-23T01:46:20;22.40;;;8.48;;
75655;SDS011;64252;51.094;13.714;2022-11-23T01:48:51;17.63;;;7.03;;
75655;SDS011;64252;51.094;13.714;2022-11-23T01:51:22;26.90;;;9.23;;
75655;SDS011;64252;51.094;13.714;2022-11-23T01:53:52;20.60;;;8.32;;
75655;SDS011;64252;51.094;13.714;2022-11-23T01:56:22;20.63;;;8.80;;
75655;SDS011;64252;51.094;13.714;2022-11-23T01:58:52;22.85;;;8.27;;
75655;SDS011;64252;51.094;13.714;2022-11-23T02:01:20;28.45;;;10.30;;
75655;SDS011;64252;51.094;13.714;2022-11-23T02:03:46;24.08;;;8.52;;
75655;SDS011;64252;51.094;13.714;2022-11-23T02:06:14;22.73;;;9.63;;
75655;SDS011;64252;51.094;13.714;2022-11-23T02:08:42;22.27;;;7.68;;
75655;SDS011;64252;51.094;13.714;2022-11-23T02:11:10;25.60;;;9.05;;
75655;SDS011;64252;51.094;13.714;2022-11-23T02:13:37;20.60;;;7.50;;
75655;SDS011;64252;51.094;13.714;2022-11-23T02:16:03;24.88;;;7.72;;
75655;SDS011;64252;51.094;13.714;2022-11-23T02:18:29;26.63;;;8.35;;
75655;SDS011;64252;51.094;13.714;2022-11-23T02:20:57;23.15;;;9.30;;
75655;SDS011;64252;51.094;13.714;2022-11-23T02:23:32;23.15;;;8.57;;
75655;SDS011;64252;51.094;13.714;2022-11-23T02:28:42;27.85;;;8.70;;
75655;SDS011;64252;51.094;13.714;2022-11-23T02:31:14;28.67;;;9.40;;
75655;SDS011;64252;51.094;13.714;2022-11-23T02:33:40;30.90;;;10.52;;
75655;SDS011;64252;51.094;13.714;2022-11-23T02:39:21;29.15;;;10.80;;
75655;SDS011;64252;51.094;13.714;2022-11-23T02:41:52;27.75;;;9.50;;
75655;SDS011;64252;51.094;13.714;2022-11-23T02:46:52;26.35;;;9.75;;
75655;SDS011;64252;51.094;13.714;2022-11-23T02:49:18;27.75;;;8.95;;
75655;SDS011;64252;51.094;13.714;2022-11-23T02:51:43;26.65;;;10.13;;
75655;SDS011;64252;51.094;13.714;2022-11-23T02:54:09;22.77;;;9.32;;
75655;SDS011;64252;51.094;13.714;2022-11-23T02:56:36;27.55;;;9.50;;
75655;SDS011;64252;51.094;13.714;2022-11-23T02:59:02;26.50;;;9.45;;
75655;SDS011;64252;51.094;13.714;2022-11-23T03:01:28;29.35;;;9.75;;
75655;SDS011;64252;51.094;13.714;2022-11-23T03:03:53;27.83;;;10.10;;
75655;SDS011;64252;51.094;13.714;2022-11-23T03:06:19;24.58;;;9.02;;
75655;SDS011;64252;51.094;13.714;2022-11-23T03:08:46;29.75;;;9.93;;
75655;SDS011;64252;51.094;13.714;2022-11-23T03:11:14;21.08;;;7.80;;
75655;SDS011;64252;51.094;13.714;2022-11-23T03:13:39;30.92;;;10.27;;
75655;SDS011;64252;51.094;13.714;2022-11-23T03:16:06;28.95;;;11.00;;
75655;SDS011;64252;51.094;13.714;2022-11-23T03:18:32;27.33;;;10.50;;
75655;SDS011;64252;51.094;13.714;2022-11-23T03:21:01;26.15;;;10.57;;
75655;SDS011;64252;51.094;13.714;2022-11-23T03:23:28;23.65;;;9.50;;
75655;SDS011;64252;51.094;13.714;2022-11-23T03:25:55;26.27;;;10.10;;
75655;SDS011;64252;51.094;13.714;2022-11-23T03:28:23;26.90;;;10.55;;
75655;SDS011;64252;51.094;13.714;2022-11-23T03:30:49;28.25;;;10.95;;
75655;SDS011;64252;51.094;13.714;2022-11-23T03:33:16;21.45;;;7.75;;
75655;SDS011;64252;51.094;13.714;2022-11-23T03:35:42;25.17;;;9.93;;
75655;SDS011;64252;51.094;13.714;2022-11-23T03:38:33;25.75;;;10.13;;
75655;SDS011;64252;51.094;13.714;2022-11-23T03:41:01;28.17;;;9.88;;
75655;SDS011;64252;51.094;13.714;2022-11-23T03:43:38;25.00;;;9.60;;
75655;SDS011;64252;51.094;13.714;2022-11-23T03:46:03;26.15;;;8.13;;
75655;SDS011;64252;51.094;13.714;2022-11-23T03:48:29;27.35;;;11.75;;
75655;SDS011;64252;51.094;13.714;2022-11-23T03:50:55;30.50;;;11.48;;
75655;SDS011;64252;51.094;13.714;2022-11-23T03:53:21;23.70;;;9.85;;
75655;SDS011;64252;51.094;13.714;2022-11-23T03:55:46;31.25;;;12.27;;
75655;SDS011;64252;51.094;13.714;2022-11-23T03:58:13;24.05;;;8.55;;
75655;SDS011;64252;51.094;13.714;2022-11-23T04:00:40;25.67;;;9.75;;
75655;SDS011;64252;51.094;13.714;2022-11-23T04:03:07;27.23;;;9.60;;
75655;SDS011;64252;51.094;13.714;2022-11-23T04:05:50;25.08;;;9.30;;
75655;SDS011;64252;51.094;13.714;2022-11-23T04:08:46;26.27;;;8.45;;
75655;SDS011;64252;51.094;13.714;2022-11-23T04:11:19;25.83;;;10.80;;
75655;SDS011;64252;51.094;13.714;2022-11-23T04:13:47;24.52;;;10.07;;
75655;SDS011;64252;51.094;13.714;2022-11-23T04:16:12;18.85;;;8.15;;
75655;SDS011;64252;51.094;13.714;2022-11-23T04:18:39;25.48;;;9.43;;
75655;SDS011;64252;51.094;13.714;2022-11-23T04:21:06;23.80;;;9.70;;
75655;SDS011;64252;51.094;13.714;2022-11-23T04:23:32;24.65;;;9.50;;
75655;SDS011;64252;51.094;13.714;2022-11-23T04:25:58;25.77;;;8.63;;
75655;SDS011;64252;51.094;13.714;2022-11-23T04:28:23;27.10;;;9.43;;
75655;SDS011;64252;51.094;13.714;2022-11-23T04:30:50;22.25;;;8.20;;
75655;SDS011;64252;51.094;13.714;2022-11-23T04:33:16;24.35;;;10.05;;
75655;SDS011;64252;51.094;13.714;2022-11-23T04:35:43;22.63;;;7.97;;
75655;SDS011;64252;51.094;13.714;2022-11-23T04:38:09;32.65;;;10.25;;
75655;SDS011;64252;51.094;13.714;2022-11-23T04:40:35;23.60;;;9.00;;
75655;SDS011;64252;51.094;13.714;2022-11-23T04:43:02;24.38;;;8.68;;
75655;SDS011;64252;51.094;13.714;2022-11-23T04:45:32;24.15;;;9.52;;
75655;SDS011;64252;51.094;13.714;2022-11-23T04:48:02;25.20;;;9.13;;
75655;SDS011;64252;51.094;13.714;2022-11-23T04:50:29;31.08;;;10.70;;
75655;SDS011;64252;51.094;13.714;2022-11-23T04:52:55;24.85;;;9.27;;
75655;SDS011;64252;51.094;13.714;2022-11-23T04:55:27;21.08;;;9.10;;
75655;SDS011;64252;51.094;13.714;2022-11-23T04:57:59;25.70;;;10.35;;
75655;SDS011;64252;51.094;13.714;2022-11-23T05:00:28;23.52;;;9.32;;
75655;SDS011;64252;51.094;13.714;2022-11-23T05:02:57;25.88;;;9.50;;
75655;SDS011;64252;51.094;13.714;2022-11-23T05:05:25;26.95;;;10.00;;
75655;SDS011;64252;51.094;13.714;2022-11-23T05:07:50;24.35;;;9.15;;
75655;SDS011;64252;51.094;13.714;2022-11-23T05:10:19;30.45;;;11.65;;
75655;SDS011;64252;51.094;13.714;2022-11-23T05:12:45;25.30;;;9.75;;
75655;SDS011;64252;51.094;13.714;2022-11-23T05:15:12;23.88;;;8.05;;
75655;SDS011;64252;51.094;13.714;2022-11-23T05:17:43;22.65;;;8.68;;
75655;SDS011;64252;51.094;13.714;2022-11-23T05:20:15;26.85;;;9.73;;
75655;SDS011;64252;51.094;13.714;2022-11-23T05:22:46;28.15;;;10.50;;
75655;SDS011;64252;51.094;13.714;2022-11-23T05:25:16;24.23;;;9.38;;
75655;SDS011;64252;51.094;13.714;2022-11-23T05:27:44;26.02;;;9.38;;
75655;SDS011;64252;51.094;13.714;2022-11-23T05:30:10;27.45;;;10.60;;
75655;SDS011;64252;51.094;13.714;2022-11-23T05:32:36;21.73;;;8.13;;
75655;SDS011;64252;51.094;13.714;2022-11-23T05:35:04;27.88;;;9.75;;
75655;SDS011;64252;51.094;13.714;2022-11-23T05:37:30;26.50;;;10.07;;
75655;SDS011;64252;51.094;13.714;2022-11-23T05:39:59;31.20;;;10.57;;
75655;SDS011;64252;51.094;13.714;2022-11-23T05:42:26;30.65;;;10.20;;
75655;SDS011;64252;51.094;13.714;2022-11-23T05:44:55;42.10;;;13.13;;
75655;SDS011;64252;51.094;13.714;2022-11-23T05:47:28;40.88;;;12.48;;
75655;SDS011;64252;51.094;13.714;2022-11-23T05:49:54;34.40;;;12.07;;
75655;SDS011;64252;51.094;13.714;2022-11-23T05:52:24;36.17;;;11.68;;
75655;SDS011;64252;51.094;13.714;2022-11-23T05:54:50;31.90;;;9.85;;
75655;SDS011;64252;51.094;13.714;2022-11-23T05:57:16;25.90;;;9.02;;
75655;SDS011;64252;51.094;13.714;2022-11-23T05:59:43;26.38;;;9.00;;
75655;SDS011;64252;51.094;13.714;2022-11-23T06:02:14;27.20;;;8.63;;
75655;SDS011;64252;51.094;13.714;2022-11-23T06:04:40;29.25;;;11.57;;
75655;SDS011;64252;51.094;13.714;2022-11-23T06:07:11;26.13;;;10.45;;
75655;SDS011;64252;51.094;13.714;2022-11-23T06:09:55;33.38;;;11.90;;
75655;SDS011;64252;51.094;13.714;2022-11-23T06:12:20;30.08;;;11.65;;
75655;SDS011;64252;51.094;13.714;2022-11-23T06:14:46;33.05;;;11.88;;
75655;SDS011;64252;51.094;13.714;2022-11-23T06:17:14;26.77;;;9.90;;
75655;SDS011;64252;51.094;13.714;2022-11-23T06:19:43;32.22;;;11.00;;
75655;SDS011;64252;51.094;13.714;2022-11-23T06:22:10;24.27;;;10.25;;
75655;SDS011;64252;51.094;13.714;2022-11-23T06:24:43;32.72;;;10.93;;
75655;SDS011;64252;51.094;13.714;2022-11-23T06:28:05;27.38;;;9.00;;
75655;SDS011;64252;51.094;13.714;2022-11-23T06:30:38;24.17;;;9.80;;
75655;SDS011;64252;51.094;13.714;2022-11-23T06:33:06;30.98;;;10.77;;
75655;SDS011;64252;51.094;13.714;2022-11-23T06:35:38;30.38;;;11.25;;
75655;SDS011;64252;51.094;13.714;2022-11-23T06:38:03;30.52;;;10.45;;
75655;SDS011;64252;51.094;13.714;2022-11-23T06:40:29;27.73;;;10.45;;
75655;SDS011;64252;51.094;13.714;2022-11-23T06:42:59;23.95;;;9.35;;
75655;SDS011;64252;51.094;13.714;2022-11-23T06:45:33;33.78;;;11.68;;
75655;SDS011;64252;51.094;13.714;2022-11-23T06:48:04;30.30;;;10.57;;
75655;SDS011;64252;51.094;13.714;2022-11-23T06:50:32;34.97;;;14.10;;
75655;SDS011;64252;51.094;13.714;2022-11-23T06:52:58;27.48;;;11.93;;
75655;SDS011;64252;51.094;13.714;2022-11-23T06:55:38;34.58;;;12.30;;
75655;SDS011;64252;51.094;13.714;2022-11-23T06:58:05;28.02;;;11.18;;
75655;SDS011;64252;51.094;13.714;2022-11-23T07:00:32;26.05;;;10.68;;
75655;SDS011;64252;51.094;13.714;2022-11-23T07:03:00;20.52;;;8.80;;
75655;SDS011;64252;51.094;13.714;2022-11-23T07:05:28;28.83;;;10.88;;
75655;SDS011;64252;51.094;13.714;2022-11-23T07:07:54;27.80;;;11.18;;
75655;SDS011;64252;51.094;13.714;2022-11-23T07:10:24;24.60;;;10.20;;
75655;SDS011;64252;51.094;13.714;2022-11-23T07:12:54;24.52;;;8.68;;
75655;SDS011;64252;51.094;13.714;2022-11-23T07:15:21;26.95;;;9.75;;
75655;SDS011;64252;51.094;13.714;2022-11-23T07:17:49;32.53;;;12.15;;
75655;SDS011;64252;51.094;13.714;2022-11-23T07:20:17;29.73;;;13.02;;
75655;SDS011;64252;51.094;13.714;2022-11-23T07:22:43;33.00;;;13.63;;
75655;SDS011;64252;51.094;13.714;2022-11-23T07:25:09;33.78;;;13.95;;
75655;SDS011;64252;51.094;13.714;2022-11-23T07:27:36;26.35;;;11.48;;
75655;SDS011;64252;51.094;13.714;2022-11-23T07:30:04;30.00;;;11.63;;
75655;SDS011;64252;51.094;13.714;2022-11-23T07:32:31;44.20;;;15.18;;
75655;SDS011;64252;51.094;13.714;2022-11-23T07:34:57;41.47;;;17.83;;
75655;SDS011;64252;51.094;13.714;2022-11-23T07:37:24;31.38;;;13.02;;
75655;SDS011;64252;51.094;13.714;2022-11-23T07:39:49;32.90;;;14.57;;
75655;SDS011;64252;51.094;13.714;2022-11-23T07:42:18;38.80;;;18.70;;
75655;SDS011;64252;51.094;13.714;2022-11-23T07:44:44;33.47;;;14.25;;
75655;SDS011;64252;51.094;13.714;2022-11-23T07:47:09;37.78;;;16.67;;
75655;SDS011;64252;51.094;13.714;2022-11-23T07:49:35;37.92;;;17.00;;
75655;SDS011;64252;51.094;13.714;2022-11-23T07:52:00;35.33;;;15.50;;
75655;SDS011;64252;51.094;13.714;2022-11-23T07:54:26;32.00;;;13.13;;
75655;SDS011;64252;51.094;13.714;2022-11-23T07:56:51;40.83;;;16.10;;
75655;SDS011;64252;51.094;13.714;2022-11-23T07:59:17;37.83;;;15.35;;
75655;SDS011;64252;51.094;13.714;2022-11-23T08:01:42;31.65;;;13.25;;
75655;SDS011;64252;51.094;13.714;2022-11-23T08:04:08;35.25;;;13.88;;
75655;SDS011;64252;51.094;13.714;2022-11-23T08:06:34;31.40;;;12.07;;
75655;SDS011;64252;51.094;13.714;2022-11-23T08:08:59;34.40;;;14.48;;
75655;SDS011;64252;51.094;13.714;2022-11-23T08:11:25;40.85;;;14.48;;
75655;SDS011;64252;51.094;13.714;2022-11-23T08:13:50;31.63;;;10.82;;
75655;SDS011;64252;51.094;13.714;2022-11-23T08:16:16;46.35;;;16.35;;
75655;SDS011;64252;51.094;13.714;2022-11-23T08:18:42;41.83;;;15.38;;
75655;SDS011;64252;51.094;13.714;2022-11-23T08:21:08;31.23;;;12.43;;
75655;SDS011;64252;51.094;13.714;2022-11-23T08:23:33;40.25;;;15.10;;
75655;SDS011;64252;51.094;13.714;2022-11-23T08:26:01;34.88;;;13.13;;
75655;SDS011;64252;51.094;13.714;2022-11-23T08:28:27;32.00;;;12.27;;
75655;SDS011;64252;51.094;13.714;2022-11-23T08:30:53;26.25;;;10.35;;
75655;SDS011;64252;51.094;13.714;2022-11-23T08:33:19;33.22;;;11.60;;
75655;SDS011;64252;51.094;13.714;2022-11-23T08:35:45;31.75;;;14.27;;
75655;SDS011;64252;51.094;13.714;2022-11-23T08:38:10;35.45;;;12.25;;
75655;SDS011;64252;51.094;13.714;2022-11-23T08:40:36;31.52;;;12.60;;
75655;SDS011;64252;51.094;13.714;2022-11-23T08:43:03;26.63;;;11.07;;
75655;SDS011;64252;51.094;13.714;2022-11-23T08:45:29;26.75;;;10.02;;
75655;SDS011;64252;51.094;13.714;2022-11-23T08:48:01;43.75;;;16.02;;
75655;SDS011;64252;51.094;13.714;2022-11-23T08:50:36;38.17;;;15.05;;
75655;SDS011;64252;51.094;13.714;2022-11-23T08:53:02;51.47;;;17.02;;
75655;SDS011;64252;51.094;13.714;2022-11-23T08:55:28;46.08;;;17.58;;
75655;SDS011;64252;51.094;13.714;2022-11-23T08:57:55;41.13;;;14.95;;
75655;SDS011;64252;51.094;13.714;2022-11-23T09:00:24;38.63;;;16.00;;
75655;SDS011;64252;51.094;13.714;2022-11-23T09:02:51;39.30;;;14.80;;
75655;SDS011;64252;51.094;13.714;2022-11-23T09:05:16;33.72;;;13.45;;
75655;SDS011;64252;51.094;13.714;2022-11-23T09:07:42;35.17;;;12.75;;
75655;SDS011;64252;51.094;13.714;2022-11-23T09:10:07;34.83;;;14.02;;
75655;SDS011;64252;51.094;13.714;2022-11-23T09:12:33;31.33;;;13.80;;
75655;SDS011;64252;51.094;13.714;2022-11-23T09:14:59;32.08;;;12.70;;
75655;SDS011;64252;51.094;13.714;2022-11-23T09:17:25;26.17;;;11.05;;
75655;SDS011;64252;51.094;13.714;2022-11-23T09:19:50;27.00;;;11.20;;
75655;SDS011;64252;51.094;13.714;2022-11-23T09:22:16;27.08;;;11.23;;
75655;SDS011;64252;51.094;13.714;2022-11-23T09:24:41;25.17;;;10.43;;
75655;SDS011;64252;51.094;13.714;2022-11-23T09:27:07;29.70;;;11.60;;
75655;SDS011;64252;51.094;13.714;2022-11-23T09:29:33;24.42;;;10.50;;
75655;SDS011;64252;51.094;13.714;2022-11-23T09:32:00;28.48;;;10.90;;
75655;SDS011;64252;51.094;13.714;2022-11-23T09:34:26;25.55;;;10.63;;
75655;SDS011;64252;51.094;13.714;2022-11-23T09:36:55;25.42;;;10.95;;
75655;SDS011;64252;51.094;13.714;2022-11-23T09:39:21;23.33;;;10.57;;
75655;SDS011;64252;51.094;13.714;2022-11-23T09:45:20;23.45;;;10.38;;
75655;SDS011;64252;51.094;13.714;2022-11-23T09:53:12;21.33;;;9.48;;
75655;SDS011;64252;51.094;13.714;2022-11-23T09:55:45;21.27;;;9.85;;
75655;SDS011;64252;51.094;13.714;2022-11-23T09:58:14;26.23;;;11.25;;
75655;SDS011;64252;51.094;13.714;2022-11-23T10:00:50;23.42;;;10.50;;
75655;SDS011;64252;51.094;13.714;2022-11-23T10:03:21;19.85;;;9.18;;
75655;SDS011;64252;51.094;13.714;2022-11-23T10:05:51;24.52;;;9.93;;
75655;SDS011;64252;51.094;13.714;2022-11-23T10:08:37;17.23;;;7.10;;
75655;SDS011;64252;51.094;13.714;2022-11-23T10:14:16;19.90;;;9.48;;
75655;SDS011;64252;51.094;13.714;2022-11-23T10:16:58;22.08;;;10.23;;
75655;SDS011;64252;51.094;13.714;2022-11-23T10:24:50;23.52;;;10.20;;
75655;SDS011;64252;51.094;13.714;2022-11-23T10:27:22;24.30;;;10.45;;
75655;SDS011;64252;51.094;13.714;2022-11-23T10:29:49;21.90;;;9.32;;
75655;SDS011;64252;51.094;13.714;2022-11-23T10:35:21;19.38;;;8.77;;
75655;SDS011;64252;51.094;13.714;2022-11-23T10:37:47;18.67;;;8.77;;
75655;SDS011;64252;51.094;13.714;2022-11-23T10:42:52;19.70;;;7.75;;
75655;SDS011;64252;51.094;13.714;2022-11-23T10:45:25;17.05;;;7.15;;
75655;SDS011;64252;51.094;13.714;2022-11-23T10:52:53;14.68;;;6.78;;
75655;SDS011;64252;51.094;13.714;2022-11-23T10:55:47;17.60;;;7.53;;
75655;SDS011;64252;51.094;13.714;2022-11-23T11:01:00;12.98;;;5.63;;
75655;SDS011;64252;51.094;13.714;2022-11-23T11:03:29;13.23;;;5.97;;
75655;SDS011;64252;51.094;13.714;2022-11-23T11:05:57;10.80;;;4.78;;
75655;SDS011;64252;51.094;13.714;2022-11-23T11:08:28;16.85;;;7.35;;
75655;SDS011;64252;51.094;13.714;2022-11-23T11:11:00;16.60;;;6.78;;
75655;SDS011;64252;51.094;13.714;2022-11-23T11:15:58;15.43;;;6.05;;
75655;SDS011;64252;51.094;13.714;2022-11-23T11:18:26;15.63;;;6.15;;
75655;SDS011;64252;51.094;13.714;2022-11-23T11:20:58;13.40;;;5.78;;
75655;SDS011;64252;51.094;13.714;2022-11-23T11:23:31;19.10;;;7.65;;
75655;SDS011;64252;51.094;13.714;2022-11-23T11:26:16;15.55;;;6.72;;
75655;SDS011;64252;51.094;13.714;2022-11-23T11:28:46;16.92;;;7.45;;
75655;SDS011;64252;51.094;13.714;2022-11-23T11:31:18;15.98;;;7.60;;
75655;SDS011;64252;51.094;13.714;2022-11-23T11:33:52;15.68;;;6.38;;
75655;SDS011;64252;51.094;13.714;2022-11-23T11:39:39;16.10;;;6.15;;
75655;SDS011;64252;51.094;13.714;2022-11-23T11:42:17;14.15;;;6.95;;
75655;SDS011;64252;51.094;13.714;2022-11-23T11:44:48;13.93;;;6.38;;
75655;SDS011;64252;51.094;13.714;2022-11-23T11:47:29;15.75;;;6.57;;
75655;SDS011;64252;51.094;13.714;2022-11-23T11:49:58;18.00;;;7.78;;
75655;SDS011;64252;51.094;13.714;2022-11-23T11:52:28;17.08;;;7.22;;
75655;SDS011;64252;51.094;13.714;2022-11-23T11:58:22;14.55;;;6.45;;
75655;SDS011;64252;51.094;13.714;2022-11-23T12:00:34;14.63;;;6.68;;
75655;SDS011;64252;51.094;13.714;2022-11-23T12:06:10;11.88;;;5.55;;
75655;SDS011;64252;51.094;13.714;2022-11-23T12:11:31;13.95;;;6.13;;
75655;SDS011;64252;51.094;13.714;2022-11-23T12:13:59;17.05;;;7.35;;
75655;SDS011;64252;51.094;13.714;2022-11-23T12:19:06;14.07;;;5.47;;
75655;SDS011;64252;51.094;13.714;2022-11-23T12:27:30;14.57;;;6.18;;
75655;SDS011;64252;51.094;13.714;2022-11-23T12:36:09;13.07;;;5.25;;
75655;SDS011;64252;51.094;13.714;2022-11-23T12:38:53;11.45;;;4.75;;
75655;SDS011;64252;51.094;13.714;2022-11-23T12:52:04;13.25;;;4.45;;
75655;SDS011;64252;51.094;13.714;2022-11-23T12:58:02;15.43;;;6.88;;
75655;SDS011;64252;51.094;13.714;2022-11-23T13:00:33;11.05;;;4.40;;
75655;SDS011;64252;51.094;13.714;2022-11-23T13:11:27;14.27;;;6.25;;
75655;SDS011;64252;51.094;13.714;2022-11-23T13:17:00;15.35;;;6.40;;
75655;SDS011;64252;51.094;13.714;2022-11-23T13:19:39;14.27;;;6.40;;
75655;SDS011;64252;51.094;13.714;2022-11-23T13:22:10;14.15;;;5.95;;
75655;SDS011;64252;51.094;13.714;2022-11-23T13:24:57;11.52;;;5.10;;
75655;SDS011;64252;51.094;13.714;2022-11-23T13:40:32;15.10;;;6.15;;
75655;SDS011;64252;51.094;13.714;2022-11-23T13:45:44;17.85;;;8.05;;
75655;SDS011;64252;51.094;13.714;2022-11-23T13:48:30;22.23;;;8.80;;
75655;SDS011;64252;51.094;13.714;2022-11-23T13:53:41;21.80;;;8.95;;
75655;SDS011;64252;51.094;13.714;2022-11-23T13:58:54;18.88;;;8.32;;
75655;SDS011;64252;51.094;13.714;2022-11-23T14:07:04;17.75;;;7.85;;
75655;SDS011;64252;51.094;13.714;2022-11-23T14:09:56;19.77;;;8.13;;
75655;SDS011;64252;51.094;13.714;2022-11-23T14:15:05;20.83;;;8.27;;
75655;SDS011;64252;51.094;13.714;2022-11-23T14:20:34;15.00;;;6.97;;
75655;SDS011;64252;51.094;13.714;2022-11-23T14:28:27;19.50;;;8.38;;
75655;SDS011;64252;51.094;13.714;2022-11-23T14:31:00;25.88;;;9.98;;
75655;SDS011;64252;51.094;13.714;2022-11-23T14:33:46;19.70;;;8.90;;
75655;SDS011;64252;51.094;13.714;2022-11-23T14:36:30;21.38;;;8.95;;
75655;SDS011;64252;51.094;13.714;2022-11-23T14:39:07;20.58;;;7.78;;
75655;SDS011;64252;51.094;13.714;2022-11-23T14:41:52;15.63;;;6.20;;
75655;SDS011;64252;51.094;13.714;2022-11-23T14:47:07;17.17;;;7.18;;
75655;SDS011;64252;51.094;13.714;2022-11-23T14:49:35;19.60;;;7.47;;
75655;SDS011;64252;51.094;13.714;2022-11-23T14:52:02;17.30;;;8.13;;
75655;SDS011;64252;51.094;13.714;2022-11-23T14:54:29;13.88;;;6.45;;
75655;SDS011;64252;51.094;13.714;2022-11-23T14:56:57;15.38;;;6.20;;
75655;SDS011;64252;51.094;13.714;2022-11-23T14:59:31;15.93;;;7.07;;
75655;SDS011;64252;51.094;13.714;2022-11-23T15:02:01;17.67;;;7.13;;
75655;SDS011;64252;51.094;13.714;2022-11-23T15:04:38;19.45;;;7.53;;
75655;SDS011;64252;51.094;13.714;2022-11-23T15:07:30;18.50;;;8.02;;
75655;SDS011;64252;51.094;13.714;2022-11-23T15:13:15;19.80;;;7.53;;
75655;SDS011;64252;51.094;13.714;2022-11-23T15:15:49;24.80;;;9.90;;
75655;SDS011;64252;51.094;13.714;2022-11-23T15:18:32;18.63;;;7.25;;
75655;SDS011;64252;51.094;13.714;2022-11-23T15:21:21;25.70;;;8.77;;
75655;SDS011;64252;51.094;13.714;2022-11-23T15:23:49;31.80;;;12.77;;
75655;SDS011;64252;51.094;13.714;2022-11-23T15:28:41;19.90;;;9.40;;
75655;SDS011;64252;51.094;13.714;2022-11-23T15:33:57;21.40;;;9.18;;
75655;SDS011;64252;51.094;13.714;2022-11-23T15:36:28;23.08;;;8.30;;
75655;SDS011;64252;51.094;13.714;2022-11-23T15:38:56;26.45;;;9.90;;
75655;SDS011;64252;51.094;13.714;2022-11-23T15:41:24;23.33;;;9.18;;
75655;SDS011;64252;51.094;13.714;2022-11-23T15:43:55;25.95;;;9.07;;
75655;SDS011;64252;51.094;13.714;2022-11-23T15:46:23;20.73;;;8.23;;
75655;SDS011;64252;51.094;13.714;2022-11-23T15:48:52;23.98;;;9.50;;
75655;SDS011;64252;51.094;13.714;2022-11-23T15:51:28;25.50;;;9.70;;
75655;SDS011;64252;51.094;13.714;2022-11-23T15:53:57;24.38;;;10.27;;
75655;SDS011;64252;51.094;13.714;2022-11-23T15:58:55;26.20;;;10.00;;
75655;SDS011;64252;51.094;13.714;2022-11-23T16:01:22;23.42;;;10.25;;
75655;SDS011;64252;51.094;13.714;2022-11-23T16:03:55;22.73;;;9.05;;
75655;SDS011;64252;51.094;13.714;2022-11-23T16:06:34;26.98;;;9.35;;
75655;SDS011;64252;51.094;13.714;2022-11-23T16:09:01;26.52;;;9.95;;
75655;SDS011;64252;51.094;13.714;2022-11-23T16:11:30;26.60;;;10.07;;
75655;SDS011;64252;51.094;13.714;2022-11-23T16:16:44;44.90;;;20.25;;
75655;SDS011;64252;51.094;13.714;2022-11-23T16:19:19;28.70;;;10.27;;
75655;SDS011;64252;51.094;13.714;2022-11-23T16:24:18;27.10;;;10.35;;
75655;SDS011;64252;51.094;13.714;2022-11-23T16:26:47;28.60;;;11.88;;
75655;SDS011;64252;51.094;13.714;2022-11-23T16:29:15;25.95;;;10.07;;
75655;SDS011;64252;51.094;13.714;2022-11-23T16:31:58;31.77;;;12.65;;
75655;SDS011;64252;51.094;13.714;2022-11-23T16:34:27;27.30;;;11.35;;
75655;SDS011;64252;51.094;13.714;2022-11-23T16:36:53;30.08;;;11.02;;
75655;SDS011;64252;51.094;13.714;2022-11-23T16:39:23;21.95;;;9.80;;
75655;SDS011;64252;51.094;13.714;2022-11-23T16:41:50;24.92;;;11.25;;
75655;SDS011;64252;51.094;13.714;2022-11-23T16:44:16;22.65;;;8.93;;
75655;SDS011;64252;51.094;13.714;2022-11-23T16:46:43;26.85;;;10.32;;
75655;SDS011;64252;51.094;13.714;2022-11-23T16:49:15;34.78;;;12.68;;
75655;SDS011;64252;51.094;13.714;2022-11-23T16:51:42;23.60;;;10.27;;
75655;SDS011;64252;51.094;13.714;2022-11-23T16:54:08;20.88;;;9.30;;
75655;SDS011;64252;51.094;13.714;2022-11-23T16:56:34;25.98;;;11.93;;
75655;SDS011;64252;51.094;13.714;2022-11-23T16:59:00;23.42;;;10.30;;